createdAt,value
2018-12-16T00:00:51.041Z,61.68
2018-12-16T00:01:51.299Z,61.61
2018-12-16T00:02:51.060Z,61.77
2018-12-16T00:03:51.331Z,61.8
2018-12-16T00:04:52.319Z,61.77
2018-12-16T00:05:51.103Z,61.71
2018-12-16T00:06:51.114Z,61.71
2018-12-16T00:07:51.392Z,61.8
2018-12-16T00:08:51.143Z,61.9
2018-12-16T00:09:51.428Z,61.99
2018-12-16T00:10:51.174Z,61.9
2018-12-16T00:11:51.205Z,61.9
2018-12-16T00:12:51.478Z,61.9
2018-12-16T00:13:51.227Z,61.9
2018-12-16T00:14:51.247Z,62.09
2018-12-16T00:15:51.257Z,62.06
2018-12-16T00:16:51.533Z,61.99
2018-12-16T00:17:51.285Z,61.87
2018-12-16T00:18:51.302Z,61.87
2018-12-16T00:19:51.312Z,62.06
2018-12-16T00:20:51.333Z,61.96
2018-12-16T00:21:51.339Z,62.15
2018-12-16T00:22:51.353Z,62.18
2018-12-16T00:23:51.379Z,62.28
2018-12-16T00:24:51.391Z,62.25
2018-12-16T00:25:51.401Z,62.25
2018-12-16T00:26:51.670Z,62.15
2018-12-16T00:27:51.432Z,61.87
2018-12-16T00:28:51.443Z,61.96
2018-12-16T00:29:51.721Z,61.9
2018-12-16T00:30:51.474Z,61.8
2018-12-16T00:31:51.751Z,61.9
2018-12-16T00:32:51.506Z,61.9
2018-12-16T00:33:51.531Z,61.8
2018-12-16T00:34:51.530Z,61.8
2018-12-16T00:35:51.549Z,61.8
2018-12-16T00:36:51.835Z,61.99
2018-12-16T00:37:51.841Z,61.8
2018-12-16T00:38:51.591Z,61.8
2018-12-16T00:39:51.870Z,61.9
2018-12-16T00:40:51.621Z,61.9
2018-12-16T00:41:51.648Z,61.99
2018-12-16T00:42:51.651Z,61.9
2018-12-16T00:43:51.666Z,61.9
2018-12-16T00:44:51.953Z,62.09
2018-12-16T00:45:51.700Z,61.8
2018-12-16T00:46:51.976Z,61.9
2018-12-16T00:47:51.726Z,61.71
2018-12-16T00:48:52.000Z,61.9
2018-12-16T00:49:51.763Z,61.71
2018-12-16T00:50:52.032Z,61.9
2018-12-16T00:51:52.057Z,61.9
2018-12-16T00:52:51.812Z,61.9
2018-12-16T00:53:51.823Z,61.99
2018-12-16T00:54:52.089Z,61.8
2018-12-16T00:55:52.118Z,61.9
2018-12-16T00:56:52.122Z,61.9
2018-12-16T00:57:51.882Z,62.18
2018-12-16T00:58:52.147Z,62.28
2018-12-16T00:59:52.177Z,62.09
2018-12-16T01:00:51.917Z,62.28
2018-12-16T01:01:52.192Z,62.37
2018-12-16T01:02:51.953Z,62.28
2018-12-16T01:03:52.239Z,61.99
2018-12-16T01:04:52.237Z,62.09
2018-12-16T01:05:51.999Z,62.18
2018-12-16T01:06:52.266Z,62.18
2018-12-16T01:07:52.283Z,62.18
2018-12-16T01:08:52.038Z,62.18
2018-12-16T01:09:52.061Z,62.28
2018-12-16T01:10:52.339Z,62.09
2018-12-16T01:11:52.345Z,62.18
2018-12-16T01:12:52.100Z,62.18
2018-12-16T01:13:52.374Z,62.09
2018-12-16T01:14:52.125Z,61.9
2018-12-16T01:15:52.141Z,61.9
2018-12-16T01:16:52.425Z,61.9
2018-12-16T01:17:52.179Z,61.9
2018-12-16T01:18:52.189Z,61.9
2018-12-16T01:19:52.204Z,62.18
2018-12-16T01:20:52.479Z,62.09
2018-12-16T01:21:52.234Z,61.99
2018-12-16T01:22:52.502Z,62.28
2018-12-16T01:23:52.265Z,62.18
2018-12-16T01:24:52.289Z,62.18
2018-12-16T01:25:52.293Z,62.47
2018-12-16T01:26:52.569Z,62.28
2018-12-16T01:27:52.320Z,62.28
2018-12-16T01:28:52.341Z,61.9
2018-12-16T01:29:52.351Z,61.99
2018-12-16T01:30:52.369Z,61.9
2018-12-16T01:31:52.642Z,61.9
2018-12-16T01:32:52.395Z,61.9
2018-12-16T01:33:52.671Z,61.8
2018-12-16T01:34:52.685Z,61.9
2018-12-16T01:35:52.454Z,61.9
2018-12-16T01:36:52.462Z,61.9
2018-12-16T01:37:52.469Z,61.9
2018-12-16T01:38:52.744Z,61.9
2018-12-16T01:39:52.496Z,61.71
2018-12-16T01:40:52.515Z,61.8
2018-12-16T01:41:52.798Z,61.71
2018-12-16T01:42:52.551Z,61.8
2018-12-16T01:43:52.570Z,61.9
2018-12-16T01:44:52.579Z,61.8
2018-12-16T01:45:52.850Z,61.8
2018-12-16T01:46:52.608Z,61.71
2018-12-16T01:47:52.876Z,61.71
2018-12-16T01:48:52.895Z,61.71
2018-12-16T01:49:52.648Z,61.71
2018-12-16T01:50:52.920Z,61.9
2018-12-16T01:51:52.937Z,61.71
2018-12-16T01:52:52.958Z,61.8
2018-12-16T01:53:52.707Z,61.8
2018-12-16T01:54:52.731Z,61.8
2018-12-16T01:55:52.992Z,61.71
2018-12-16T01:56:52.755Z,61.71
2018-12-16T01:57:52.782Z,61.71
2018-12-16T01:58:53.049Z,61.71
2018-12-16T01:59:52.810Z,61.71
2018-12-16T02:00:52.821Z,61.9
2018-12-16T02:01:52.830Z,61.8
2018-12-16T02:02:52.847Z,61.9
2018-12-16T02:03:52.859Z,61.8
2018-12-16T02:04:52.872Z,61.99
2018-12-16T02:05:53.144Z,61.99
2018-12-16T02:06:52.900Z,61.99
2018-12-16T02:07:53.181Z,62.28
2018-12-16T02:08:53.202Z,61.99
2018-12-16T02:09:52.955Z,61.9
2018-12-16T02:10:53.234Z,61.8
2018-12-16T02:11:52.977Z,61.8
2018-12-16T02:12:53.001Z,61.71
2018-12-16T02:13:53.271Z,61.8
2018-12-16T02:14:53.289Z,61.9
2018-12-16T02:15:53.301Z,61.61
2018-12-16T02:16:53.322Z,61.71
2018-12-16T02:17:53.328Z,61.71
2018-12-16T02:18:53.082Z,61.9
2018-12-16T02:19:53.417Z,61.71
2018-12-16T02:20:53.385Z,61.8
2018-12-16T02:21:53.124Z,61.9
2018-12-16T02:22:59.260Z,61.8
2018-12-16T02:23:53.182Z,61.71
2018-12-16T02:24:53.181Z,61.9
2018-12-16T02:25:53.463Z,61.9
2018-12-16T02:26:53.213Z,61.9
2018-12-16T02:27:53.475Z,61.99
2018-12-16T02:28:53.235Z,61.9
2018-12-16T02:29:53.557Z,61.8
2018-12-16T02:30:53.521Z,61.8
2018-12-16T02:31:53.295Z,61.9
2018-12-16T02:32:53.595Z,61.9
2018-12-16T02:33:53.566Z,61.71
2018-12-16T02:34:53.328Z,61.8
2018-12-16T02:35:53.604Z,61.9
2018-12-16T02:36:53.351Z,61.99
2018-12-16T02:37:53.624Z,61.9
2018-12-16T02:38:53.646Z,61.9
2018-12-16T02:39:53.399Z,61.71
2018-12-16T02:40:53.422Z,61.71
2018-12-16T02:41:53.790Z,61.71
2018-12-16T02:42:53.449Z,61.9
2018-12-16T02:43:53.715Z,61.71
2018-12-16T02:44:53.472Z,61.9
2018-12-16T02:45:53.746Z,61.9
2018-12-16T02:46:53.504Z,61.61
2018-12-16T02:47:53.775Z,61.71
2018-12-16T02:48:53.826Z,61.71
2018-12-16T02:49:53.550Z,61.9
2018-12-16T02:50:53.569Z,61.52
2018-12-16T02:51:53.838Z,61.9
2018-12-16T02:52:53.862Z,61.71
2018-12-16T02:53:53.616Z,61.71
2018-12-16T02:54:53.882Z,61.9
2018-12-16T02:55:53.635Z,61.61
2018-12-16T02:56:53.912Z,61.99
2018-12-16T02:57:53.934Z,61.9
2018-12-16T02:58:53.681Z,61.9
2018-12-16T02:59:53.706Z,61.9
2018-12-16T03:00:53.979Z,61.9
2018-12-16T03:01:53.732Z,61.9
2018-12-16T03:02:54.000Z,61.9
2018-12-16T03:03:53.758Z,61.71
2018-12-16T03:04:54.038Z,61.9
2018-12-16T03:05:53.810Z,61.71
2018-12-16T03:06:53.815Z,61.71
2018-12-16T03:07:53.830Z,61.8
2018-12-16T03:08:54.090Z,61.71
2018-12-16T03:09:53.855Z,61.8
2018-12-16T03:10:54.120Z,61.99
2018-12-16T03:11:54.148Z,61.8
2018-12-16T03:12:53.898Z,61.71
2018-12-16T03:13:54.169Z,61.99
2018-12-16T03:14:53.925Z,61.99
2018-12-16T03:15:54.209Z,61.8
2018-12-16T03:16:53.954Z,61.9
2018-12-16T03:17:53.966Z,61.9
2018-12-16T03:18:54.238Z,61.9
2018-12-16T03:19:53.996Z,62.18
2018-12-16T03:20:54.016Z,61.9
2018-12-16T03:21:54.361Z,61.9
2018-12-16T03:22:54.042Z,61.71
2018-12-16T03:23:54.065Z,61.9
2018-12-16T03:24:54.072Z,61.8
2018-12-16T03:25:54.086Z,61.9
2018-12-16T03:26:54.358Z,61.8
2018-12-16T03:27:54.376Z,61.71
2018-12-16T03:28:54.134Z,61.9
2018-12-16T03:29:54.423Z,61.8
2018-12-16T03:30:54.171Z,61.71
2018-12-16T03:31:54.192Z,61.9
2018-12-16T03:32:54.199Z,61.8
2018-12-16T03:33:54.209Z,61.9
2018-12-16T03:34:54.484Z,61.71
2018-12-16T03:35:54.239Z,61.9
2018-12-16T03:36:54.256Z,61.99
2018-12-16T03:37:54.275Z,61.71
2018-12-16T03:38:54.283Z,61.61
2018-12-16T03:39:54.552Z,61.71
2018-12-16T03:40:54.313Z,61.9
2018-12-16T03:41:54.340Z,61.99
2018-12-16T03:42:54.615Z,62.18
2018-12-16T03:43:54.411Z,62.18
2018-12-16T03:44:54.382Z,62.28
2018-12-16T03:45:54.388Z,62.28
2018-12-16T03:46:54.663Z,62.28
2018-12-16T03:47:54.677Z,62.28
2018-12-16T03:48:54.430Z,62.28
2018-12-16T03:49:54.716Z,62.28
2018-12-16T03:50:54.459Z,62.18
2018-12-16T03:51:54.734Z,62.18
2018-12-16T03:52:54.504Z,62.37
2018-12-16T03:53:54.765Z,62.28
2018-12-16T03:54:54.787Z,62.28
2018-12-16T03:55:54.536Z,62.28
2018-12-16T03:56:54.811Z,61.99
2018-12-16T03:57:54.840Z,62.28
2018-12-16T03:58:54.843Z,62.28
2018-12-16T03:59:54.878Z,62.28
2018-12-16T04:00:54.610Z,62.18
2018-12-16T04:01:54.885Z,62.28
2018-12-16T04:02:54.908Z,61.9
2018-12-16T04:03:54.914Z,61.99
2018-12-16T04:04:54.939Z,61.61
2018-12-16T04:05:54.695Z,62.18
2018-12-16T04:06:54.958Z,62.28
2018-12-16T04:07:54.724Z,62.28
2018-12-16T04:08:54.991Z,62.18
2018-12-16T04:09:55.016Z,61.9
2018-12-16T04:10:54.768Z,62.37
2018-12-16T04:11:54.776Z,62.28
2018-12-16T04:12:54.794Z,62.37
2018-12-16T04:13:55.061Z,62.28
2018-12-16T04:14:55.158Z,62.37
2018-12-16T04:15:54.844Z,62.37
2018-12-16T04:16:55.108Z,62.37
2018-12-16T04:17:54.869Z,62.18
2018-12-16T04:18:55.139Z,62.37
2018-12-16T04:19:54.896Z,62.18
2018-12-16T04:20:54.915Z,62.28
2018-12-16T04:21:55.182Z,62.18
2018-12-16T04:22:54.939Z,62.28
2018-12-16T04:23:54.954Z,61.9
2018-12-16T04:24:55.226Z,62.28
2018-12-16T04:25:54.993Z,62.28
2018-12-16T04:26:55.011Z,62.28
2018-12-16T04:27:55.287Z,62.28
2018-12-16T04:28:55.037Z,62.18
2018-12-16T04:29:55.303Z,62.28
2018-12-16T04:30:55.063Z,62.28
2018-12-16T04:31:55.097Z,62.28
2018-12-16T04:32:55.346Z,62.37
2018-12-16T04:33:55.104Z,62.18
2018-12-16T04:34:55.383Z,62.28
2018-12-16T04:35:55.406Z,62.18
2018-12-16T04:36:55.146Z,62.28
2018-12-16T04:37:55.164Z,62.28
2018-12-16T04:38:55.180Z,62.37
2018-12-16T04:39:55.204Z,62.18
2018-12-16T04:40:55.469Z,62.28
2018-12-16T04:41:55.486Z,62.37
2018-12-16T04:42:55.501Z,62.28
2018-12-16T04:43:55.516Z,61.9
2018-12-16T04:44:55.268Z,61.99
2018-12-16T04:45:55.289Z,61.99
2018-12-16T04:46:55.564Z,61.99
2018-12-16T04:47:55.320Z,62.18
2018-12-16T04:48:55.345Z,62.09
2018-12-16T04:49:55.606Z,61.9
2018-12-16T04:50:55.361Z,62.09
2018-12-16T04:51:55.380Z,62.18
2018-12-16T04:52:55.389Z,61.9
2018-12-16T04:53:55.406Z,62.18
2018-12-16T04:54:55.681Z,62.18
2018-12-16T04:55:55.689Z,62.18
2018-12-16T04:56:55.463Z,62.09
2018-12-16T04:57:55.727Z,62.09
2018-12-16T04:58:55.745Z,61.9
2018-12-16T04:59:55.503Z,62.09
2018-12-16T05:00:55.767Z,62.18
2018-12-16T05:01:55.797Z,61.99
2018-12-16T05:02:55.537Z,62.09
2018-12-16T05:03:55.823Z,61.9
2018-12-16T05:04:55.567Z,62.09
2018-12-16T05:05:55.586Z,62.18
2018-12-16T05:06:55.866Z,62.09
2018-12-16T05:07:55.618Z,61.9
2018-12-16T05:08:55.635Z,62.09
2018-12-16T05:09:55.642Z,62.09
2018-12-16T05:10:55.658Z,62.09
2018-12-16T05:11:55.948Z,62.18
2018-12-16T05:12:55.688Z,62.28
2018-12-16T05:13:55.961Z,62.18
2018-12-16T05:14:55.978Z,62.18
2018-12-16T05:15:55.734Z,61.99
2018-12-16T05:16:55.760Z,62.28
2018-12-16T05:17:56.018Z,62.47
2018-12-16T05:18:55.781Z,62.47
2018-12-16T05:19:56.063Z,62.28
2018-12-16T05:20:55.809Z,62.28
2018-12-16T05:21:56.081Z,62.28
2018-12-16T05:22:56.097Z,62.47
2018-12-16T05:23:55.850Z,62.18
2018-12-16T05:24:56.130Z,62.37
2018-12-16T05:25:56.156Z,62.09
2018-12-16T05:26:55.900Z,61.99
2018-12-16T05:27:56.182Z,62.47
2018-12-16T05:28:55.932Z,62.18
2018-12-16T05:29:55.956Z,62.28
2018-12-16T05:30:55.956Z,62.37
2018-12-16T05:31:56.242Z,62.18
2018-12-16T05:32:56.065Z,62.18
2018-12-16T05:33:56.004Z,62.28
2018-12-16T05:34:56.278Z,62.47
2018-12-16T05:35:56.291Z,62.37
2018-12-16T05:36:56.045Z,62.28
2018-12-16T05:37:56.321Z,62.28
2018-12-16T05:38:56.077Z,62.28
2018-12-16T05:39:56.351Z,62.18
2018-12-16T05:40:56.362Z,62.18
2018-12-16T05:41:56.127Z,62.18
2018-12-16T05:42:56.394Z,62.47
2018-12-16T05:43:56.154Z,62.18
2018-12-16T05:44:56.169Z,62.18
2018-12-16T05:45:56.447Z,62.28
2018-12-16T05:46:56.198Z,62.18
2018-12-16T05:47:56.470Z,62.28
2018-12-16T05:48:56.228Z,62.28
2018-12-16T05:49:56.251Z,62.18
2018-12-16T05:50:56.516Z,62.18
2018-12-16T05:51:56.273Z,62.18
2018-12-16T05:52:56.287Z,62.28
2018-12-16T05:53:56.574Z,62.18
2018-12-16T05:54:56.316Z,62.37
2018-12-16T05:55:56.596Z,62.47
2018-12-16T05:56:56.344Z,62.28
2018-12-16T05:57:56.615Z,62.28
2018-12-16T05:58:56.650Z,61.99
2018-12-16T05:59:56.390Z,62.47
2018-12-16T06:00:56.412Z,61.99
2018-12-16T06:01:56.419Z,62.18
2018-12-16T06:02:56.439Z,61.9
2018-12-16T06:03:56.713Z,61.99
2018-12-16T06:04:56.474Z,62.18
2018-12-16T06:05:56.743Z,62.37
2018-12-16T06:06:56.762Z,62.37
2018-12-16T06:07:56.512Z,62.47
2018-12-16T06:08:56.787Z,62.47
2018-12-16T06:09:56.544Z,62.18
2018-12-16T06:10:56.822Z,62.56
2018-12-16T06:11:56.846Z,62.37
2018-12-16T06:12:56.584Z,62.56
2018-12-16T06:13:56.864Z,62.37
2018-12-16T06:14:56.618Z,62.37
2018-12-16T06:15:56.634Z,62.47
2018-12-16T06:16:56.902Z,62.28
2018-12-16T06:17:56.657Z,62.28
2018-12-16T06:18:56.948Z,62.37
2018-12-16T06:19:56.691Z,62.37
2018-12-16T06:20:56.965Z,62.18
2018-12-16T06:21:56.778Z,62.18
2018-12-16T06:22:56.736Z,62.18
2018-12-16T06:23:57.951Z,62.18
2018-12-16T06:24:56.767Z,62.18
2018-12-16T06:25:57.042Z,62.28
2018-12-16T06:26:56.802Z,62.28
2018-12-16T06:27:56.820Z,62.18
2018-12-16T06:28:57.081Z,62.18
2018-12-16T06:29:56.840Z,62.18
2018-12-16T06:30:57.114Z,62.18
2018-12-16T06:31:57.552Z,62.28
2018-12-16T06:32:56.892Z,62.28
2018-12-16T06:33:57.159Z,62.28
2018-12-16T06:34:57.186Z,62.18
2018-12-16T06:35:57.196Z,62.18
2018-12-16T06:36:57.206Z,62.18
2018-12-16T06:37:57.215Z,62.37
2018-12-16T06:38:57.237Z,62.37
2018-12-16T06:39:56.989Z,62.28
2018-12-16T06:40:57.004Z,62.28
2018-12-16T06:41:57.577Z,62.37
2018-12-16T06:42:57.291Z,62.18
2018-12-16T06:43:57.310Z,62.37
2018-12-16T06:44:57.066Z,62.28
2018-12-16T06:45:57.079Z,62.18
2018-12-16T06:46:57.362Z,62.18
2018-12-16T06:47:57.390Z,62.09
2018-12-16T06:48:57.150Z,62.18
2018-12-16T06:49:57.170Z,62.18
2018-12-16T06:50:57.161Z,62.18
2018-12-16T06:51:57.427Z,62.18
2018-12-16T06:52:57.181Z,62.18
2018-12-16T06:54:02.282Z,62.18
2018-12-16T06:54:57.471Z,62.18
2018-12-16T06:55:57.229Z,62.56
2018-12-16T06:56:57.243Z,62.66
2018-12-16T06:57:57.259Z,62.47
2018-12-16T06:58:57.549Z,62.47
2018-12-16T06:59:57.292Z,62.94
2018-12-16T07:00:57.563Z,63.04
2018-12-16T07:01:57.321Z,62.66
2018-12-16T07:02:57.593Z,63.32
2018-12-16T07:03:57.608Z,63.04
2018-12-16T07:04:57.366Z,63.23
2018-12-16T07:05:57.641Z,63.32
2018-12-16T07:06:57.394Z,63.32
2018-12-16T07:07:57.665Z,63.32
2018-12-16T07:08:57.685Z,63.32
2018-12-16T07:09:57.440Z,62.56
2018-12-16T07:10:57.458Z,62.94
2018-12-16T07:11:57.740Z,62.85
2018-12-16T07:12:57.779Z,62.85
2018-12-16T07:13:57.752Z,63.13
2018-12-16T07:14:57.512Z,63.04
2018-12-16T07:15:57.558Z,62.94
2018-12-16T07:16:57.580Z,63.04
2018-12-16T07:17:57.819Z,63.23
2018-12-16T07:18:57.603Z,63.04
2018-12-16T07:19:57.595Z,63.23
2018-12-16T07:20:57.633Z,62.56
2018-12-16T07:21:57.642Z,63.13
2018-12-16T07:22:57.896Z,63.23
2018-12-16T07:23:57.906Z,62.85
2018-12-16T07:24:57.932Z,63.13
2018-12-16T07:25:57.706Z,63.23
2018-12-16T07:26:57.698Z,63.13
2018-12-16T07:27:57.760Z,63.13
2018-12-16T07:28:57.730Z,62.85
2018-12-16T07:29:57.774Z,62.75
2018-12-16T07:30:58.013Z,62.47
2018-12-16T07:31:57.769Z,62.47
2018-12-16T07:32:57.812Z,62.47
2018-12-16T07:33:57.840Z,62.47
2018-12-16T07:34:58.085Z,62.28
2018-12-16T07:35:57.854Z,62.37
2018-12-16T07:36:57.892Z,63.07
2018-12-16T07:37:57.867Z,63.23
2018-12-16T07:38:58.152Z,62.4
2018-12-16T07:39:57.901Z,62.85
2018-12-16T07:40:58.173Z,63.04
2018-12-16T07:41:57.919Z,63.42
2018-12-16T07:42:57.936Z,63.51
2018-12-16T07:43:58.212Z,63.6
2018-12-16T07:44:58.312Z,63.7
2018-12-16T07:45:58.019Z,63.7
2018-12-16T07:46:58.251Z,63.7
2018-12-16T07:47:58.325Z,63.6
2018-12-16T07:48:58.039Z,63.51
2018-12-16T07:49:58.050Z,63.79
2018-12-16T07:50:58.078Z,63.32
2018-12-16T07:51:58.371Z,63.79
2018-12-16T07:52:59.542Z,63.42
2018-12-16T07:53:58.389Z,63.7
2018-12-16T07:54:58.444Z,64.17
2018-12-16T07:55:58.401Z,64.17
2018-12-16T07:56:58.202Z,64.17
2018-12-16T07:57:58.156Z,64.26
2018-12-16T07:58:58.473Z,63.98
2018-12-16T07:59:58.187Z,63.89
2018-12-16T08:00:58.220Z,63.89
2018-12-16T08:01:58.244Z,63.92
2018-12-16T08:02:58.237Z,64.36
2018-12-16T08:03:58.541Z,64.17
2018-12-16T08:04:58.522Z,64.07
2018-12-16T08:05:58.295Z,64.55
2018-12-16T08:06:58.557Z,64.77
2018-12-16T08:07:58.576Z,64.87
2018-12-16T08:08:58.322Z,64.58
2018-12-16T08:09:58.595Z,64.68
2018-12-16T08:10:58.608Z,64.77
2018-12-16T08:11:58.367Z,65.25
2018-12-16T08:12:58.392Z,64.87
2018-12-16T08:13:58.450Z,64.87
2018-12-16T08:14:58.418Z,65.06
2018-12-16T08:15:58.691Z,65.25
2018-12-16T08:16:58.716Z,64.74
2018-12-16T08:17:58.457Z,65.15
2018-12-16T08:18:58.739Z,65.06
2018-12-16T08:19:58.753Z,65.15
2018-12-16T08:20:58.513Z,65.15
2018-12-16T08:21:58.779Z,65.15
2018-12-16T08:22:58.532Z,65.25
2018-12-16T08:23:58.554Z,65.15
2018-12-16T08:24:58.823Z,65.25
2018-12-16T08:25:58.577Z,65.06
2018-12-16T08:26:58.849Z,65.15
2018-12-16T08:27:58.612Z,65.02
2018-12-16T08:28:58.626Z,65.02
2018-12-16T08:29:58.902Z,65.34
2018-12-16T08:30:58.657Z,65.15
2018-12-16T08:31:58.672Z,65.25
2018-12-16T08:32:58.941Z,65.25
2018-12-16T08:33:58.702Z,65.06
2018-12-16T08:34:58.716Z,65.06
2018-12-16T08:35:58.990Z,66
2018-12-16T08:36:58.743Z,65.91
2018-12-16T08:37:59.016Z,65.81
2018-12-16T08:38:59.034Z,66.19
2018-12-16T08:39:58.791Z,65.63
2018-12-16T08:40:58.815Z,66.09
2018-12-16T08:41:58.819Z,66
2018-12-16T08:42:59.093Z,65.81
2018-12-16T08:43:59.109Z,65.81
2018-12-16T08:44:59.132Z,65.91
2018-12-16T08:45:58.882Z,65.72
2018-12-16T08:46:58.904Z,66.38
2018-12-16T08:47:59.182Z,66.38
2018-12-16T08:48:58.933Z,66.47
2018-12-16T08:49:58.950Z,66.09
2018-12-16T08:50:58.956Z,66.19
2018-12-16T08:51:58.980Z,66.28
2018-12-16T08:52:59.242Z,66.28
2018-12-16T08:53:59.420Z,66.67
2018-12-16T08:54:59.024Z,66.67
2018-12-16T08:56:00.447Z,66.47
2018-12-16T08:56:59.313Z,66.38
2018-12-16T08:57:59.059Z,66.28
2018-12-16T08:58:59.337Z,66.38
2018-12-16T08:59:59.090Z,66.19
2018-12-16T09:00:59.113Z,66.19
2018-12-16T09:01:59.437Z,66.38
2018-12-16T09:02:59.143Z,66.38
2018-12-16T09:03:59.179Z,66.67
2018-12-16T09:04:59.422Z,66.47
2018-12-16T09:05:59.182Z,66.28
2018-12-16T09:06:59.455Z,66.86
2018-12-16T09:07:59.206Z,66.86
2018-12-16T09:08:59.234Z,67.24
2018-12-16T09:09:59.511Z,67.05
2018-12-16T09:10:59.522Z,67.14
2018-12-16T09:11:59.271Z,67.05
2018-12-16T09:12:59.541Z,67.05
2018-12-16T09:13:59.568Z,67.24
2018-12-16T09:14:59.570Z,67.9
2018-12-16T09:15:59.600Z,67.71
2018-12-16T09:16:59.353Z,67.71
2018-12-16T09:17:59.624Z,67.99
2018-12-16T09:18:59.372Z,67.99
2018-12-16T09:19:59.395Z,67.8
2018-12-16T09:20:59.665Z,67.8
2018-12-16T09:21:59.421Z,67.8
2018-12-16T09:22:59.436Z,67.8
2018-12-16T09:23:59.461Z,68.18
2018-12-16T09:24:59.461Z,68.37
2018-12-16T09:25:59.479Z,67.9
2018-12-16T09:26:59.755Z,68.27
2018-12-16T09:27:59.766Z,68.08
2018-12-16T09:28:59.523Z,67.99
2018-12-16T09:29:59.537Z,68.65
2018-12-16T09:31:00.369Z,67.99
2018-12-16T09:31:59.580Z,68.37
2018-12-16T09:32:59.839Z,68.65
2018-12-16T09:33:59.600Z,69.03
2018-12-16T09:34:59.631Z,68.75
2018-12-16T09:35:59.891Z,68.27
2018-12-16T09:36:59.642Z,68.18
2018-12-16T09:37:59.662Z,68.65
2018-12-16T09:38:59.931Z,68.75
2018-12-16T09:39:59.690Z,68.08
2018-12-16T09:40:59.967Z,68.65
2018-12-16T09:41:59.978Z,68.75
2018-12-16T09:42:59.748Z,68.75
2018-12-16T09:44:00.011Z,68.46
2018-12-16T09:45:00.024Z,68.65
2018-12-16T09:45:59.780Z,68.27
2018-12-16T09:46:59.799Z,68.37
2018-12-16T09:47:59.813Z,67.9
2018-12-16T09:49:00.098Z,68.27
2018-12-16T09:50:00.111Z,68.37
2018-12-16T09:50:59.863Z,68.08
2018-12-16T09:51:59.878Z,68.46
2018-12-16T09:53:00.155Z,68.56
2018-12-16T09:54:00.169Z,68.37
2018-12-16T09:54:59.918Z,68.46
2018-12-16T09:56:00.001Z,68.56
2018-12-16T09:57:00.215Z,68.18
2018-12-16T09:57:59.961Z,68.08
2018-12-16T09:59:00.242Z,68.08
2018-12-16T09:59:59.999Z,68.65
2018-12-16T10:01:00.007Z,67.99
2018-12-16T10:02:00.023Z,68.46
2018-12-16T10:03:00.042Z,68.37
2018-12-16T10:04:00.059Z,68.37
2018-12-16T10:05:00.073Z,68.37
2018-12-16T10:06:00.095Z,67.99
2018-12-16T10:07:00.106Z,68.46
2018-12-16T10:08:00.372Z,68.65
2018-12-16T10:09:00.126Z,67.9
2018-12-16T10:10:00.142Z,68.18
2018-12-16T10:11:00.415Z,68.37
2018-12-16T10:12:00.172Z,68.37
2018-12-16T10:13:00.188Z,67.9
2018-12-16T10:14:00.203Z,68.46
2018-12-16T10:15:00.475Z,68.46
2018-12-16T10:16:00.490Z,68.56
2018-12-16T10:17:00.246Z,68.08
2018-12-16T10:18:00.264Z,68.56
2018-12-16T10:19:00.534Z,68.56
2018-12-16T10:20:00.563Z,68.84
2018-12-16T10:21:00.571Z,69.13
2018-12-16T10:22:00.330Z,70.17
2018-12-16T10:23:00.607Z,70.17
2018-12-16T10:24:00.625Z,69.79
2018-12-16T10:25:00.646Z,69.98
2018-12-16T10:26:00.394Z,69.32
2018-12-16T10:27:00.656Z,69.41
2018-12-16T10:28:00.679Z,69.32
2018-12-16T10:29:00.440Z,70.07
2018-12-16T10:30:00.716Z,70.17
2018-12-16T10:31:00.465Z,70.07
2018-12-16T10:32:00.738Z,69.6
2018-12-16T10:33:00.764Z,69.98
2018-12-16T10:34:00.505Z,69.7
2018-12-16T10:35:00.777Z,69.51
2018-12-16T10:36:00.791Z,69.6
2018-12-16T10:37:00.807Z,69.64
2018-12-16T10:38:00.564Z,69.03
2018-12-16T10:39:01.861Z,69.13
2018-12-16T10:40:00.852Z,68.98
2018-12-16T10:41:00.871Z,68.79
2018-12-16T10:42:00.625Z,68.56
2018-12-16T10:43:00.651Z,68.56
2018-12-16T10:44:00.918Z,68.65
2018-12-16T10:45:00.733Z,68.69
2018-12-16T10:46:00.945Z,68.69
2018-12-16T10:47:00.700Z,68.69
2018-12-16T10:48:00.978Z,68.79
2018-12-16T10:49:06.847Z,68.5
2018-12-16T10:50:01.058Z,68.98
2018-12-16T10:51:01.017Z,68.5
2018-12-16T10:52:01.038Z,68.59
2018-12-16T10:53:01.051Z,68.59
2018-12-16T10:54:00.807Z,68.69
2018-12-16T10:55:01.038Z,68.79
2018-12-16T10:56:00.838Z,68.79
2018-12-16T10:57:00.853Z,68.88
2018-12-16T10:58:01.126Z,68.4
2018-12-16T10:59:01.141Z,68.69
2018-12-16T11:00:01.157Z,68.69
2018-12-16T11:01:00.926Z,68.88
2018-12-16T11:02:00.931Z,68.79
2018-12-16T11:03:00.959Z,68.69
2018-12-16T11:04:01.215Z,68.5
2018-12-16T11:05:01.291Z,69.07
2018-12-16T11:06:01.002Z,68.98
2018-12-16T11:07:01.015Z,68.98
2018-12-16T11:08:01.025Z,69.07
2018-12-16T11:09:01.046Z,68.69
2018-12-16T11:10:01.053Z,68.69
2018-12-16T11:11:01.326Z,68.69
2018-12-16T11:12:01.339Z,68.79
2018-12-16T11:13:01.093Z,68.98
2018-12-16T11:14:01.112Z,68.69
2018-12-16T11:15:01.128Z,68.4
2018-12-16T11:16:01.154Z,68.31
2018-12-16T11:17:01.165Z,68.12
2018-12-16T11:18:01.172Z,68.4
2018-12-16T11:19:01.185Z,68.79
2018-12-16T11:20:01.204Z,68.98
2018-12-16T11:21:01.216Z,69.07
2018-12-16T11:22:02.300Z,68.69
2018-12-16T11:23:01.329Z,68.69
2018-12-16T11:24:01.273Z,68.69
2018-12-16T11:25:08.175Z,68.69
2018-12-16T11:26:01.549Z,68.79
2018-12-16T11:27:01.587Z,68.69
2018-12-16T11:28:01.588Z,68.59
2018-12-16T11:29:01.341Z,68.69
2018-12-16T11:30:01.359Z,68.5
2018-12-16T11:31:01.676Z,68.69
2018-12-16T11:32:01.387Z,68.79
2018-12-16T11:33:01.409Z,68.69
2018-12-16T11:34:01.674Z,68.4
2018-12-16T11:35:01.432Z,68.31
2018-12-16T11:36:01.717Z,69.07
2018-12-16T11:37:01.458Z,68.4
2018-12-16T11:38:01.959Z,68.98
2018-12-16T11:39:01.493Z,68.79
2018-12-16T11:40:01.510Z,67.93
2018-12-16T11:41:01.782Z,67.83
2018-12-16T11:42:01.542Z,68.5
2018-12-16T11:43:01.811Z,68.5
2018-12-16T11:44:01.580Z,68.5
2018-12-16T11:45:01.846Z,68.31
2018-12-16T11:46:01.652Z,68.12
2018-12-16T11:47:01.876Z,68.31
2018-12-16T11:48:01.897Z,68.69
2018-12-16T11:49:01.901Z,68.02
2018-12-16T11:50:01.919Z,67.93
2018-12-16T11:51:01.727Z,68.69
2018-12-16T11:52:01.690Z,68.12
2018-12-16T11:53:01.982Z,68.59
2018-12-16T11:54:01.723Z,67.83
2018-12-16T11:55:01.739Z,67.93
2018-12-16T11:56:01.764Z,68.69
2018-12-16T11:57:01.768Z,67.93
2018-12-16T11:58:01.788Z,68.4
2018-12-16T11:59:02.055Z,68.4
2018-12-16T12:00:02.071Z,68.69
2018-12-16T12:01:02.087Z,68.5
2018-12-16T12:02:01.853Z,67.65
2018-12-16T12:03:01.866Z,68.12
2018-12-16T12:04:01.872Z,67.93
2018-12-16T12:05:02.200Z,68.21
2018-12-16T12:06:02.218Z,68.69
2018-12-16T12:07:02.181Z,68.4
2018-12-16T12:08:01.943Z,68.59
2018-12-16T12:09:02.213Z,68.4
2018-12-16T12:10:02.227Z,68.21
2018-12-16T12:11:02.291Z,67.93
2018-12-16T12:12:02.005Z,68.5
2018-12-16T12:13:02.074Z,68.02
2018-12-16T12:14:02.027Z,68.31
2018-12-16T12:15:02.303Z,68.69
2018-12-16T12:16:02.327Z,68.69
2018-12-16T12:17:02.076Z,68.4
2018-12-16T12:18:02.358Z,68.21
2018-12-16T12:19:02.375Z,67.93
2018-12-16T12:20:02.123Z,69.17
2018-12-16T12:21:02.146Z,70.01
2018-12-16T12:22:06.587Z,70.49
2018-12-16T12:23:02.166Z,70.01
2018-12-16T12:24:02.457Z,70.11
2018-12-16T12:25:02.193Z,69.64
2018-12-16T12:26:02.211Z,69.82
2018-12-16T12:27:02.229Z,69.17
2018-12-16T12:28:02.244Z,69.17
2018-12-16T12:29:02.257Z,69.35
2018-12-16T12:30:02.275Z,69.45
2018-12-16T12:31:02.299Z,69.64
2018-12-16T12:32:02.307Z,69.54
2018-12-16T12:33:02.576Z,69.26
2018-12-16T12:34:02.346Z,69.17
2018-12-16T12:35:02.607Z,69.17
2018-12-16T12:36:02.621Z,69.26
2018-12-16T12:37:02.654Z,69.92
2018-12-16T12:38:02.653Z,70.01
2018-12-16T12:39:02.667Z,69.92
2018-12-16T12:40:02.685Z,70.87
2018-12-16T12:41:02.703Z,71.25
2018-12-16T12:42:02.724Z,71.06
2018-12-16T12:43:02.485Z,70.87
2018-12-16T12:44:02.746Z,70.39
2018-12-16T12:45:02.766Z,70.2
2018-12-16T12:46:02.522Z,70.2
2018-12-16T12:47:02.803Z,70.49
2018-12-16T12:48:02.806Z,70.01
2018-12-16T12:49:02.821Z,69.45
2018-12-16T12:50:02.859Z,69.92
2018-12-16T12:51:02.593Z,69.73
2018-12-16T12:52:02.879Z,69.82
2018-12-16T12:53:02.896Z,69.45
2018-12-16T12:54:02.640Z,69.35
2018-12-16T12:55:02.654Z,69.54
2018-12-16T12:56:02.940Z,69.35
2018-12-16T12:57:02.692Z,69.17
2018-12-16T12:58:02.971Z,69.35
2018-12-16T12:59:02.720Z,69.17